Philipsburg, MT (59858)

9:34 PM MDT on July 30, 2014 (GMT -0600)
RAWS YANKEE FLAT MT US (MTT238) Elev 6000 ft | 46.16 °N, 113.14 °W | Change Station

Current weather conditions updated 54 minutes ago

Mostly Cloudy
Mostly Cloudy
68 °F
Feels Like 68 °F
N
4
Wind Variable Wind from SSE
Gusts 10.0 mph

Tomorrow is forecast to be Warmer than today.

Today
High -- | Low -- °F
--% Chance of Precip.
Yesterday
High -- | Low -- °F
Precip. -- in
6:12 AM 9:06 PM
Waxing Crescent, 15% visible
Pressure 30.14 in
Visibility 10.0 miles
Clouds Scattered Clouds 10000 ft
Mostly Cloudy 12000 ft
Dew Point 44 °F
Humidity 42%
Rainfall 0.00 in
Snow Depth 0 in
UV 0 out of 12
Pollen 5.40 out of 12
Air Quality Not available.
Flu Activity Not available.
METAR KBTM 310253Z AUTO VRB05G21KT 10SM SCT100 BKN120 21/05 A3030 RMK AO2 PK WND 02030/0242 SLP206 T02110050 53009

More Conditions Fewer Conditions

Pressure 30.14 in
Visibility 10.0 miles
Clouds Scattered Clouds 10000 ft
Mostly Cloudy 12000 ft
Dew Point 44 °F
Humidity 42%
Rainfall 0.00 in
Snow Depth 0 in
UV 0 out of 12
Pollen 5.40 out of 12
Air Quality Not available.
Flu Activity Not available.
METAR KBTM 310253Z AUTO VRB05G21KT 10SM SCT100 BKN120 21/05 A3030 RMK AO2 PK WND 02030/0242 SLP206 T02110050 53009

More Conditions Fewer Conditions

10-Day Weather Forecast

Almanac

Astronomy

Jul. 30, 2014 Rise Set
Actual Time 6:12 AM MDT 9:06 PM MDT
Civil Twilight 5:37 AM MDT 9:41 PM MDT
Nautical Twilight 4:52 AM MDT 10:25 PM MDT
Astronomical Twilight 3:59 AM MDT 11:18 PM MDT
Moon 10:03 AM MDT (7/30) 10:33 PM MDT (7/30)
Length of Visible Light 16h 03m
Length of Day
14h 53m
Tomorrow will be 2m 30s shorter.
Waxing Crescent, 15% of the Moon is Illuminated
Today
Waxing Crescent
Aug 3
First Quarter
Aug 10
Full
Aug 17
Last Quarter
Aug 25
New

Today's Extremes

State Highs State Lows

Community

WunderPhotos

Upload Photos

1,739,290 photos uploaded!

Nearby

Snow Depth

Station Depth Elevation
Peterson Meadows 0 in 7200 ft
Daly Creek 1 in 5780 ft
Saddle Mountain 0 in 7900 ft
Basin Creek 0 in 7180 ft
Rocker Peak 0 in 8000 ft

Earthquake Activity

City Distance Mag. Time & Date
Townsend, Montana 94 miles 3.0 10:32 AM MDT
2014-07-26
Minimum magnitude displayed is 2.5.

Coastal Water Temperatures

Place Temperature
No Stations Reporting

Nearby Weather Stations

Station Location Temp. Heat Index Dew Point Humidity Wind Precip. Elev Updated Type
HADS FLINT CREEK AT MAXVILLE MT, Hall, MT 74 °F 72 °F - - North  at  - 0.00 in / hr 4842 ft 8:45 PM MDT MADIS
RAWS YANKEE FLAT MT, Anaconda, MT 68 °F - 44 °F 42% SSE  at  4 mph 0.00 in / hr 6000 ft 8:40 PM MDT MADIS
goosetown 2, Anaconda, MT 68.5 °F - 46 °F 45% WNW  at  1.0 mph 0.00 in / hr 5240 ft 9:31 PM MDT Normal
Timberline Drive, Gold Creek, MT 67.8 °F - 48 °F 49% WSW  at  0.0 mph 0.00 in / hr 4872 ft 9:30 PM MDT Normal

Show More Stations Show Fewer Stations